sensor_id;sensor_type;location;lat;lon;timestamp;temperature;humidity
7360;DHT22;3720;48.274;7.796;2023-02-08T00:00:11;1.30;99.90
7360;DHT22;3720;48.274;7.796;2023-02-08T00:02:44;1.20;99.90
7360;DHT22;3720;48.274;7.796;2023-02-08T00:05:17;1.20;99.90
7360;DHT22;3720;48.274;7.796;2023-02-08T00:07:49;1.20;99.90
7360;DHT22;3720;48.274;7.796;2023-02-08T00:10:21;1.10;99.90
7360;DHT22;3720;48.274;7.796;2023-02-08T00:12:53;1.20;99.90
7360;DHT22;3720;48.274;7.796;2023-02-08T00:15:25;1.10;99.90
7360;DHT22;3720;48.274;7.796;2023-02-08T00:17:58;1.20;99.90
7360;DHT22;3720;48.274;7.796;2023-02-08T00:20:30;1.10;99.90
7360;DHT22;3720;48.274;7.796;2023-02-08T00:23:02;1.10;99.90
7360;DHT22;3720;48.274;7.796;2023-02-08T00:25:34;1.10;99.90
7360;DHT22;3720;48.274;7.796;2023-02-08T00:28:07;1.10;99.90
7360;DHT22;3720;48.274;7.796;2023-02-08T00:30:42;1.10;99.90
7360;DHT22;3720;48.274;7.796;2023-02-08T00:33:16;1.00;99.90
7360;DHT22;3720;48.274;7.796;2023-02-08T00:35:48;1.10;99.90
7360;DHT22;3720;48.274;7.796;2023-02-08T00:38:20;1.00;99.90
7360;DHT22;3720;48.274;7.796;2023-02-08T00:40:51;1.00;99.90
7360;DHT22;3720;48.274;7.796;2023-02-08T00:43:23;1.00;99.90
7360;DHT22;3720;48.274;7.796;2023-02-08T00:45:56;1.00;99.90
7360;DHT22;3720;48.274;7.796;2023-02-08T00:48:29;1.10;99.90
7360;DHT22;3720;48.274;7.796;2023-02-08T00:51:04;1.10;99.90
7360;DHT22;3720;48.274;7.796;2023-02-08T00:53:38;1.00;99.90
7360;DHT22;3720;48.274;7.796;2023-02-08T00:56:11;1.10;99.90
7360;DHT22;3720;48.274;7.796;2023-02-08T00:58:43;1.00;99.90
7360;DHT22;3720;48.274;7.796;2023-02-08T01:01:15;1.00;99.90
7360;DHT22;3720;48.274;7.796;2023-02-08T01:03:48;1.00;99.90
7360;DHT22;3720;48.274;7.796;2023-02-08T01:06:20;1.00;99.90
7360;DHT22;3720;48.274;7.796;2023-02-08T01:08:52;0.90;99.90
7360;DHT22;3720;48.274;7.796;2023-02-08T01:11:24;0.90;99.90
7360;DHT22;3720;48.274;7.796;2023-02-08T01:13:57;0.90;99.90
7360;DHT22;3720;48.274;7.796;2023-02-08T01:16:31;0.90;99.90
7360;DHT22;3720;48.274;7.796;2023-02-08T01:19:04;0.90;99.90
7360;DHT22;3720;48.274;7.796;2023-02-08T01:21:38;0.90;99.90
7360;DHT22;3720;48.274;7.796;2023-02-08T01:24:11;0.90;99.90
7360;DHT22;3720;48.274;7.796;2023-02-08T01:26:43;0.90;99.90
7360;DHT22;3720;48.274;7.796;2023-02-08T01:29:15;0.90;99.90
7360;DHT22;3720;48.274;7.796;2023-02-08T01:31:46;0.90;99.90
7360;DHT22;3720;48.274;7.796;2023-02-08T01:34:20;0.90;99.90
7360;DHT22;3720;48.274;7.796;2023-02-08T01:36:52;0.90;99.90
7360;DHT22;3720;48.274;7.796;2023-02-08T01:39:24;0.80;99.90
7360;DHT22;3720;48.274;7.796;2023-02-08T01:41:56;0.90;99.90
7360;DHT22;3720;48.274;7.796;2023-02-08T01:45:15;0.80;99.90
7360;DHT22;3720;48.274;7.796;2023-02-08T01:47:53;0.90;99.90
7360;DHT22;3720;48.274;7.796;2023-02-08T01:50:33;0.90;99.90
7360;DHT22;3720;48.274;7.796;2023-02-08T01:53:06;0.90;99.90
7360;DHT22;3720;48.274;7.796;2023-02-08T01:55:44;0.80;99.90
7360;DHT22;3720;48.274;7.796;2023-02-08T01:58:18;0.80;99.90
7360;DHT22;3720;48.274;7.796;2023-02-08T02:00:51;0.80;99.90
7360;DHT22;3720;48.274;7.796;2023-02-08T02:03:24;0.80;99.90
7360;DHT22;3720;48.274;7.796;2023-02-08T02:06:03;0.70;99.90
7360;DHT22;3720;48.274;7.796;2023-02-08T02:08:41;0.70;99.90
7360;DHT22;3720;48.274;7.796;2023-02-08T02:11:14;0.70;99.90
7360;DHT22;3720;48.274;7.796;2023-02-08T02:13:47;0.60;99.90
7360;DHT22;3720;48.274;7.796;2023-02-08T02:16:20;0.60;99.90
7360;DHT22;3720;48.274;7.796;2023-02-08T02:18:52;0.60;99.90
7360;DHT22;3720;48.274;7.796;2023-02-08T02:21:45;0.50;99.90
7360;DHT22;3720;48.274;7.796;2023-02-08T02:27:54;0.40;99.90
7360;DHT22;3720;48.274;7.796;2023-02-08T02:33:52;0.20;99.90
7360;DHT22;3720;48.274;7.796;2023-02-08T02:36:34;0.20;99.90
7360;DHT22;3720;48.274;7.796;2023-02-08T02:39:16;0.10;99.90
7360;DHT22;3720;48.274;7.796;2023-02-08T02:41:55;0.00;99.90
7360;DHT22;3720;48.274;7.796;2023-02-08T02:44:53;-0.10;99.90
7360;DHT22;3720;48.274;7.796;2023-02-08T02:47:34;-0.20;99.90
7360;DHT22;3720;48.274;7.796;2023-02-08T02:50:15;-0.20;99.90
7360;DHT22;3720;48.274;7.796;2023-02-08T02:52:55;-0.30;99.90
7360;DHT22;3720;48.274;7.796;2023-02-08T02:55:32;-0.30;99.90
7360;DHT22;3720;48.274;7.796;2023-02-08T02:58:05;-0.30;99.90
7360;DHT22;3720;48.274;7.796;2023-02-08T03:00:39;-0.30;99.90
7360;DHT22;3720;48.274;7.796;2023-02-08T03:03:16;-0.40;99.90
7360;DHT22;3720;48.274;7.796;2023-02-08T03:05:55;-0.50;99.90
7360;DHT22;3720;48.274;7.796;2023-02-08T03:08:49;-0.50;99.90
7360;DHT22;3720;48.274;7.796;2023-02-08T03:11:25;-0.60;99.90
7360;DHT22;3720;48.274;7.796;2023-02-08T03:14:08;-0.60;99.90
7360;DHT22;3720;48.274;7.796;2023-02-08T03:20:04;-0.60;99.90
7360;DHT22;3720;48.274;7.796;2023-02-08T03:22:44;-0.70;99.90
7360;DHT22;3720;48.274;7.796;2023-02-08T03:25:21;-0.70;99.90
7360;DHT22;3720;48.274;7.796;2023-02-08T03:27:59;-0.80;99.90
7360;DHT22;3720;48.274;7.796;2023-02-08T03:30:38;-0.70;99.90
7360;DHT22;3720;48.274;7.796;2023-02-08T03:33:22;-0.80;99.90
7360;DHT22;3720;48.274;7.796;2023-02-08T03:35:58;-0.80;99.90
7360;DHT22;3720;48.274;7.796;2023-02-08T03:38:36;-0.80;99.90
7360;DHT22;3720;48.274;7.796;2023-02-08T03:41:15;-0.90;99.90
7360;DHT22;3720;48.274;7.796;2023-02-08T03:43:54;-0.90;99.90
7360;DHT22;3720;48.274;7.796;2023-02-08T03:46:29;-0.90;99.90
7360;DHT22;3720;48.274;7.796;2023-02-08T03:49:07;-1.00;99.90
7360;DHT22;3720;48.274;7.796;2023-02-08T03:51:42;-1.00;99.90
7360;DHT22;3720;48.274;7.796;2023-02-08T03:54:18;-1.00;99.90
7360;DHT22;3720;48.274;7.796;2023-02-08T03:56:51;-1.10;99.90
7360;DHT22;3720;48.274;7.796;2023-02-08T03:59:28;-1.10;99.90
7360;DHT22;3720;48.274;7.796;2023-02-08T04:02:02;-1.20;99.90
7360;DHT22;3720;48.274;7.796;2023-02-08T04:04:37;-1.20;99.90
7360;DHT22;3720;48.274;7.796;2023-02-08T04:07:11;-1.20;99.90
7360;DHT22;3720;48.274;7.796;2023-02-08T04:09:45;-1.20;99.90
7360;DHT22;3720;48.274;7.796;2023-02-08T04:12:17;-1.20;99.90
7360;DHT22;3720;48.274;7.796;2023-02-08T04:14:49;-1.30;99.90
7360;DHT22;3720;48.274;7.796;2023-02-08T04:17:21;-1.40;99.90
7360;DHT22;3720;48.274;7.796;2023-02-08T04:19:52;-1.40;99.90
7360;DHT22;3720;48.274;7.796;2023-02-08T04:22:24;-1.30;99.90
7360;DHT22;3720;48.274;7.796;2023-02-08T04:24:58;-1.40;99.90
7360;DHT22;3720;48.274;7.796;2023-02-08T04:27:30;-1.40;99.90
7360;DHT22;3720;48.274;7.796;2023-02-08T04:30:03;-1.40;99.90
7360;DHT22;3720;48.274;7.796;2023-02-08T04:32:35;-1.40;99.90
7360;DHT22;3720;48.274;7.796;2023-02-08T04:35:07;-1.50;99.90
7360;DHT22;3720;48.274;7.796;2023-02-08T04:37:39;-1.50;99.90
7360;DHT22;3720;48.274;7.796;2023-02-08T04:40:12;-1.50;99.90
7360;DHT22;3720;48.274;7.796;2023-02-08T04:42:44;-1.50;99.90
7360;DHT22;3720;48.274;7.796;2023-02-08T04:45:16;-1.60;99.90
7360;DHT22;3720;48.274;7.796;2023-02-08T04:47:48;-1.60;99.90
7360;DHT22;3720;48.274;7.796;2023-02-08T04:50:19;-1.60;99.90
7360;DHT22;3720;48.274;7.796;2023-02-08T04:52:51;-1.60;99.90
7360;DHT22;3720;48.274;7.796;2023-02-08T04:55:25;-1.70;99.90
7360;DHT22;3720;48.274;7.796;2023-02-08T04:57:57;-1.70;99.90
7360;DHT22;3720;48.274;7.796;2023-02-08T05:00:29;-1.70;99.90
7360;DHT22;3720;48.274;7.796;2023-02-08T05:03:01;-1.70;99.90
7360;DHT22;3720;48.274;7.796;2023-02-08T05:05:34;-1.70;99.90
7360;DHT22;3720;48.274;7.796;2023-02-08T05:08:06;-1.70;99.90
7360;DHT22;3720;48.274;7.796;2023-02-08T05:10:44;-1.70;99.90
7360;DHT22;3720;48.274;7.796;2023-02-08T05:13:16;-1.70;99.90
7360;DHT22;3720;48.274;7.796;2023-02-08T05:15:48;-1.70;99.90
7360;DHT22;3720;48.274;7.796;2023-02-08T05:18:20;-1.70;99.90
7360;DHT22;3720;48.274;7.796;2023-02-08T05:20:55;-1.70;99.90
7360;DHT22;3720;48.274;7.796;2023-02-08T05:23:27;-1.80;99.90
7360;DHT22;3720;48.274;7.796;2023-02-08T05:26:04;-1.80;99.90
7360;DHT22;3720;48.274;7.796;2023-02-08T05:28:36;-1.80;99.90
7360;DHT22;3720;48.274;7.796;2023-02-08T05:31:10;-1.90;99.90
7360;DHT22;3720;48.274;7.796;2023-02-08T05:33:42;-1.90;99.90
7360;DHT22;3720;48.274;7.796;2023-02-08T05:36:14;-2.00;99.90
7360;DHT22;3720;48.274;7.796;2023-02-08T05:38:47;-2.00;99.90
7360;DHT22;3720;48.274;7.796;2023-02-08T05:41:20;-2.10;99.90
7360;DHT22;3720;48.274;7.796;2023-02-08T05:43:52;-2.10;99.90
7360;DHT22;3720;48.274;7.796;2023-02-08T05:46:24;-2.20;99.90
7360;DHT22;3720;48.274;7.796;2023-02-08T05:48:56;-2.10;99.90
7360;DHT22;3720;48.274;7.796;2023-02-08T05:51:28;-2.20;99.90
7360;DHT22;3720;48.274;7.796;2023-02-08T05:54:00;-2.10;99.90
7360;DHT22;3720;48.274;7.796;2023-02-08T05:56:33;-2.10;99.90
7360;DHT22;3720;48.274;7.796;2023-02-08T05:59:05;-2.20;99.90
7360;DHT22;3720;48.274;7.796;2023-02-08T06:01:37;-2.20;99.90
7360;DHT22;3720;48.274;7.796;2023-02-08T06:04:09;-2.10;99.90
7360;DHT22;3720;48.274;7.796;2023-02-08T06:06:41;-2.20;99.90
7360;DHT22;3720;48.274;7.796;2023-02-08T06:09:14;-2.20;99.90
7360;DHT22;3720;48.274;7.796;2023-02-08T06:11:47;-2.20;99.90
7360;DHT22;3720;48.274;7.796;2023-02-08T06:14:19;-2.20;99.90
7360;DHT22;3720;48.274;7.796;2023-02-08T06:16:51;-2.20;99.90
7360;DHT22;3720;48.274;7.796;2023-02-08T06:19:24;-2.10;99.90
7360;DHT22;3720;48.274;7.796;2023-02-08T06:21:56;-2.20;99.90
7360;DHT22;3720;48.274;7.796;2023-02-08T06:24:28;-2.20;99.90
7360;DHT22;3720;48.274;7.796;2023-02-08T06:27:01;-2.20;99.90
7360;DHT22;3720;48.274;7.796;2023-02-08T06:29:33;-2.20;99.90
7360;DHT22;3720;48.274;7.796;2023-02-08T06:32:05;-2.20;99.90
7360;DHT22;3720;48.274;7.796;2023-02-08T06:34:37;-2.20;99.90
7360;DHT22;3720;48.274;7.796;2023-02-08T06:37:09;-2.20;99.90
7360;DHT22;3720;48.274;7.796;2023-02-08T06:39:42;-2.30;99.90
7360;DHT22;3720;48.274;7.796;2023-02-08T06:42:15;-2.30;99.90
7360;DHT22;3720;48.274;7.796;2023-02-08T06:44:47;-2.30;99.90
7360;DHT22;3720;48.274;7.796;2023-02-08T06:47:19;-2.30;99.90
7360;DHT22;3720;48.274;7.796;2023-02-08T06:49:52;-2.30;99.90
7360;DHT22;3720;48.274;7.796;2023-02-08T06:52:23;-2.30;99.90
7360;DHT22;3720;48.274;7.796;2023-02-08T06:54:55;-2.30;99.90
7360;DHT22;3720;48.274;7.796;2023-02-08T06:57:28;-2.30;99.90
7360;DHT22;3720;48.274;7.796;2023-02-08T07:00:01;-2.20;99.90
7360;DHT22;3720;48.274;7.796;2023-02-08T07:02:33;-2.30;99.90
7360;DHT22;3720;48.274;7.796;2023-02-08T07:05:05;-2.30;99.90
7360;DHT22;3720;48.274;7.796;2023-02-08T07:07:37;-2.30;99.90
7360;DHT22;3720;48.274;7.796;2023-02-08T07:10:09;-2.20;99.90
7360;DHT22;3720;48.274;7.796;2023-02-08T07:12:43;-2.20;99.90
7360;DHT22;3720;48.274;7.796;2023-02-08T07:15:14;-2.20;99.90
7360;DHT22;3720;48.274;7.796;2023-02-08T07:17:47;-2.20;99.90
7360;DHT22;3720;48.274;7.796;2023-02-08T07:20:19;-2.10;99.90
7360;DHT22;3720;48.274;7.796;2023-02-08T07:22:51;-2.10;99.90
7360;DHT22;3720;48.274;7.796;2023-02-08T07:25:23;-2.10;99.90
7360;DHT22;3720;48.274;7.796;2023-02-08T07:27:56;-2.10;99.90
7360;DHT22;3720;48.274;7.796;2023-02-08T07:30:28;-2.10;99.90
7360;DHT22;3720;48.274;7.796;2023-02-08T07:33:00;-2.00;99.90
7360;DHT22;3720;48.274;7.796;2023-02-08T07:35:32;-2.00;99.90
7360;DHT22;3720;48.274;7.796;2023-02-08T07:38:04;-2.00;99.90
7360;DHT22;3720;48.274;7.796;2023-02-08T07:40:36;-1.90;99.90
7360;DHT22;3720;48.274;7.796;2023-02-08T07:43:09;-1.80;99.90
7360;DHT22;3720;48.274;7.796;2023-02-08T07:45:41;-1.80;99.90
7360;DHT22;3720;48.274;7.796;2023-02-08T07:48:13;-1.70;99.90
7360;DHT22;3720;48.274;7.796;2023-02-08T07:50:45;-1.70;99.90
7360;DHT22;3720;48.274;7.796;2023-02-08T07:53:17;-1.70;99.90
7360;DHT22;3720;48.274;7.796;2023-02-08T07:55:49;-1.70;99.90
7360;DHT22;3720;48.274;7.796;2023-02-08T07:58:23;-1.60;99.90
7360;DHT22;3720;48.274;7.796;2023-02-08T08:00:55;-1.60;99.90
7360;DHT22;3720;48.274;7.796;2023-02-08T08:03:27;-1.50;99.90
7360;DHT22;3720;48.274;7.796;2023-02-08T08:05:59;-1.50;99.90
7360;DHT22;3720;48.274;7.796;2023-02-08T08:08:31;-1.50;99.90
7360;DHT22;3720;48.274;7.796;2023-02-08T08:11:03;-1.40;99.90
7360;DHT22;3720;48.274;7.796;2023-02-08T08:13:36;-1.40;99.90
7360;DHT22;3720;48.274;7.796;2023-02-08T08:16:08;-1.30;99.90
7360;DHT22;3720;48.274;7.796;2023-02-08T08:18:41;-1.30;99.90
7360;DHT22;3720;48.274;7.796;2023-02-08T08:21:13;-1.30;99.90
7360;DHT22;3720;48.274;7.796;2023-02-08T08:23:46;-1.20;99.90
7360;DHT22;3720;48.274;7.796;2023-02-08T08:26:20;-1.20;99.90
7360;DHT22;3720;48.274;7.796;2023-02-08T08:28:54;-1.10;99.90
7360;DHT22;3720;48.274;7.796;2023-02-08T08:31:25;-1.00;99.90
7360;DHT22;3720;48.274;7.796;2023-02-08T08:33:57;-1.00;99.90
7360;DHT22;3720;48.274;7.796;2023-02-08T08:36:30;-0.90;99.90
7360;DHT22;3720;48.274;7.796;2023-02-08T08:39:01;-0.80;99.90
7360;DHT22;3720;48.274;7.796;2023-02-08T08:41:33;-0.70;99.90
7360;DHT22;3720;48.274;7.796;2023-02-08T08:44:07;-0.70;99.90
7360;DHT22;3720;48.274;7.796;2023-02-08T08:46:39;-0.60;99.90
7360;DHT22;3720;48.274;7.796;2023-02-08T08:49:11;-0.60;99.90
7360;DHT22;3720;48.274;7.796;2023-02-08T08:51:43;-0.60;99.90
7360;DHT22;3720;48.274;7.796;2023-02-08T08:54:15;-0.50;99.90
7360;DHT22;3720;48.274;7.796;2023-02-08T08:56:47;-0.30;99.90
7360;DHT22;3720;48.274;7.796;2023-02-08T08:59:20;-0.30;99.90
7360;DHT22;3720;48.274;7.796;2023-02-08T09:01:53;-0.20;99.90
7360;DHT22;3720;48.274;7.796;2023-02-08T09:04:25;-0.10;99.90
7360;DHT22;3720;48.274;7.796;2023-02-08T09:06:57;0.00;99.90
7360;DHT22;3720;48.274;7.796;2023-02-08T09:09:29;0.10;99.90
7360;DHT22;3720;48.274;7.796;2023-02-08T09:12:01;0.20;99.90
7360;DHT22;3720;48.274;7.796;2023-02-08T09:14:35;0.40;99.90
7360;DHT22;3720;48.274;7.796;2023-02-08T09:17:07;0.50;99.90
7360;DHT22;3720;48.274;7.796;2023-02-08T09:19:39;0.60;99.90
7360;DHT22;3720;48.274;7.796;2023-02-08T09:22:12;0.80;99.90
7360;DHT22;3720;48.274;7.796;2023-02-08T09:24:43;0.90;99.90
7360;DHT22;3720;48.274;7.796;2023-02-08T09:27:15;1.10;99.90
7360;DHT22;3720;48.274;7.796;2023-02-08T09:29:49;1.20;99.90
7360;DHT22;3720;48.274;7.796;2023-02-08T09:32:21;1.40;99.90
7360;DHT22;3720;48.274;7.796;2023-02-08T09:34:53;1.60;99.90
7360;DHT22;3720;48.274;7.796;2023-02-08T09:37:27;1.80;99.90
7360;DHT22;3720;48.274;7.796;2023-02-08T09:40:20;2.00;99.90
7360;DHT22;3720;48.274;7.796;2023-02-08T09:43:03;2.20;99.90
7360;DHT22;3720;48.274;7.796;2023-02-08T09:45:46;2.50;99.90
7360;DHT22;3720;48.274;7.796;2023-02-08T09:48:21;2.60;99.90
7360;DHT22;3720;48.274;7.796;2023-02-08T09:50:57;2.80;99.90
7360;DHT22;3720;48.274;7.796;2023-02-08T09:53:33;3.00;99.90
7360;DHT22;3720;48.274;7.796;2023-02-08T09:56:08;3.20;99.90
7360;DHT22;3720;48.274;7.796;2023-02-08T09:58:43;3.40;99.90
7360;DHT22;3720;48.274;7.796;2023-02-08T10:01:22;3.60;99.90
7360;DHT22;3720;48.274;7.796;2023-02-08T10:03:58;3.80;99.90
7360;DHT22;3720;48.274;7.796;2023-02-08T10:06:31;4.10;99.90
7360;DHT22;3720;48.274;7.796;2023-02-08T10:09:05;4.30;99.90
7360;DHT22;3720;48.274;7.796;2023-02-08T10:11:47;4.60;99.90
7360;DHT22;3720;48.274;7.796;2023-02-08T10:14:37;4.90;99.90
7360;DHT22;3720;48.274;7.796;2023-02-08T10:17:28;5.20;99.90
7360;DHT22;3720;48.274;7.796;2023-02-08T10:20:15;5.40;99.90
7360;DHT22;3720;48.274;7.796;2023-02-08T10:22:56;5.60;99.90
7360;DHT22;3720;48.274;7.796;2023-02-08T10:25:54;5.80;99.90
7360;DHT22;3720;48.274;7.796;2023-02-08T10:28:38;6.00;99.90
7360;DHT22;3720;48.274;7.796;2023-02-08T10:31:22;6.30;99.90
7360;DHT22;3720;48.274;7.796;2023-02-08T10:34:01;6.60;99.90
7360;DHT22;3720;48.274;7.796;2023-02-08T10:36:37;6.80;99.90
7360;DHT22;3720;48.274;7.796;2023-02-08T10:39:15;7.00;99.90
7360;DHT22;3720;48.274;7.796;2023-02-08T10:41:47;7.20;99.90
7360;DHT22;3720;48.274;7.796;2023-02-08T10:44:26;7.40;99.90
7360;DHT22;3720;48.274;7.796;2023-02-08T10:47:08;7.60;99.90
7360;DHT22;3720;48.274;7.796;2023-02-08T10:49:51;8.00;99.90
7360;DHT22;3720;48.274;7.796;2023-02-08T10:52:24;8.20;99.90
7360;DHT22;3720;48.274;7.796;2023-02-08T10:54:57;8.40;99.90
7360;DHT22;3720;48.274;7.796;2023-02-08T10:57:33;8.50;99.90
7360;DHT22;3720;48.274;7.796;2023-02-08T11:00:07;8.80;99.90
7360;DHT22;3720;48.274;7.796;2023-02-08T11:02:42;8.90;99.90
7360;DHT22;3720;48.274;7.796;2023-02-08T11:05:19;9.10;99.90
7360;DHT22;3720;48.274;7.796;2023-02-08T11:08:04;9.30;99.90
7360;DHT22;3720;48.274;7.796;2023-02-08T11:10:38;9.40;99.90
7360;DHT22;3720;48.274;7.796;2023-02-08T11:13:16;9.80;99.90
7360;DHT22;3720;48.274;7.796;2023-02-08T11:15:51;10.00;99.90
7360;DHT22;3720;48.274;7.796;2023-02-08T11:18:26;10.20;99.90
7360;DHT22;3720;48.274;7.796;2023-02-08T11:21:04;10.30;99.90
7360;DHT22;3720;48.274;7.796;2023-02-08T11:23:40;10.50;99.90
7360;DHT22;3720;48.274;7.796;2023-02-08T11:26:18;10.60;99.90
7360;DHT22;3720;48.274;7.796;2023-02-08T11:29:00;10.80;99.90
7360;DHT22;3720;48.274;7.796;2023-02-08T11:31:33;11.00;99.90
7360;DHT22;3720;48.274;7.796;2023-02-08T11:34:07;11.00;99.90
7360;DHT22;3720;48.274;7.796;2023-02-08T11:36:45;11.00;99.90
7360;DHT22;3720;48.274;7.796;2023-02-08T11:39:22;11.20;99.90
7360;DHT22;3720;48.274;7.796;2023-02-08T11:41:57;11.30;99.90
7360;DHT22;3720;48.274;7.796;2023-02-08T11:44:30;11.30;99.90
7360;DHT22;3720;48.274;7.796;2023-02-08T11:47:05;11.40;99.90
7360;DHT22;3720;48.274;7.796;2023-02-08T11:49:41;11.50;99.90
7360;DHT22;3720;48.274;7.796;2023-02-08T11:52:21;11.60;99.80
7360;DHT22;3720;48.274;7.796;2023-02-08T11:55:11;11.80;99.20
7360;DHT22;3720;48.274;7.796;2023-02-08T11:57:51;12.10;98.40
7360;DHT22;3720;48.274;7.796;2023-02-08T12:00:26;12.40;97.40
7360;DHT22;3720;48.274;7.796;2023-02-08T12:03:00;12.50;95.80
7360;DHT22;3720;48.274;7.796;2023-02-08T12:05:37;12.40;94.40
7360;DHT22;3720;48.274;7.796;2023-02-08T12:08:18;12.30;95.30
7360;DHT22;3720;48.274;7.796;2023-02-08T12:11:06;12.50;96.20
7360;DHT22;3720;48.274;7.796;2023-02-08T12:13:56;12.60;94.40
7360;DHT22;3720;48.274;7.796;2023-02-08T12:16:54;12.70;94.00
7360;DHT22;3720;48.274;7.796;2023-02-08T12:20:02;12.80;93.90
7360;DHT22;3720;48.274;7.796;2023-02-08T12:22:38;13.00;93.20
7360;DHT22;3720;48.274;7.796;2023-02-08T12:25:21;13.10;92.80
7360;DHT22;3720;48.274;7.796;2023-02-08T12:28:03;13.10;92.30
7360;DHT22;3720;48.274;7.796;2023-02-08T12:30:44;13.10;91.70
7360;DHT22;3720;48.274;7.796;2023-02-08T12:33:31;13.00;91.90
7360;DHT22;3720;48.274;7.796;2023-02-08T12:36:22;12.90;91.80
7360;DHT22;3720;48.274;7.796;2023-02-08T12:39:11;13.00;91.10
7360;DHT22;3720;48.274;7.796;2023-02-08T12:42:24;13.20;90.40
7360;DHT22;3720;48.274;7.796;2023-02-08T12:45:31;13.30;89.80
7360;DHT22;3720;48.274;7.796;2023-02-08T12:48:19;13.60;88.30
7360;DHT22;3720;48.274;7.796;2023-02-08T12:50:57;13.60;86.20
7360;DHT22;3720;48.274;7.796;2023-02-08T12:53:36;13.80;85.70
7360;DHT22;3720;48.274;7.796;2023-02-08T12:56:11;13.90;84.80
7360;DHT22;3720;48.274;7.796;2023-02-08T12:58:46;13.80;85.10
7360;DHT22;3720;48.274;7.796;2023-02-08T13:01:21;14.00;84.90
7360;DHT22;3720;48.274;7.796;2023-02-08T13:04:01;14.10;83.60
7360;DHT22;3720;48.274;7.796;2023-02-08T13:06:39;14.00;84.00
7360;DHT22;3720;48.274;7.796;2023-02-08T13:09:16;14.10;83.40
7360;DHT22;3720;48.274;7.796;2023-02-08T13:11:53;14.20;82.00
7360;DHT22;3720;48.274;7.796;2023-02-08T13:14:32;14.20;81.10
7360;DHT22;3720;48.274;7.796;2023-02-08T13:17:12;14.20;81.90
7360;DHT22;3720;48.274;7.796;2023-02-08T13:19:55;14.00;81.30
7360;DHT22;3720;48.274;7.796;2023-02-08T13:22:32;14.10;81.60
7360;DHT22;3720;48.274;7.796;2023-02-08T13:25:12;14.10;82.10
7360;DHT22;3720;48.274;7.796;2023-02-08T13:27:45;14.10;81.70
7360;DHT22;3720;48.274;7.796;2023-02-08T13:30:21;14.20;81.10
7360;DHT22;3720;48.274;7.796;2023-02-08T13:32:53;13.90;80.70
7360;DHT22;3720;48.274;7.796;2023-02-08T13:35:28;13.90;80.70
7360;DHT22;3720;48.274;7.796;2023-02-08T13:38:02;14.00;77.40
7360;DHT22;3720;48.274;7.796;2023-02-08T13:40:36;14.10;78.70
7360;DHT22;3720;48.274;7.796;2023-02-08T13:43:20;14.10;79.50
7360;DHT22;3720;48.274;7.796;2023-02-08T13:45:58;14.00;78.30
7360;DHT22;3720;48.274;7.796;2023-02-08T13:48:42;14.00;77.20
7360;DHT22;3720;48.274;7.796;2023-02-08T13:54:20;13.90;77.70
7360;DHT22;3720;48.274;7.796;2023-02-08T13:56:52;14.00;77.50
7360;DHT22;3720;48.274;7.796;2023-02-08T13:59:28;14.00;76.60
7360;DHT22;3720;48.274;7.796;2023-02-08T14:02:26;14.00;77.80
7360;DHT22;3720;48.274;7.796;2023-02-08T14:08:26;14.00;75.90
7360;DHT22;3720;48.274;7.796;2023-02-08T14:11:03;13.80;75.50
7360;DHT22;3720;48.274;7.796;2023-02-08T14:13:46;13.80;75.90
7360;DHT22;3720;48.274;7.796;2023-02-08T14:16:28;13.60;75.00
7360;DHT22;3720;48.274;7.796;2023-02-08T14:19:04;13.50;76.00
7360;DHT22;3720;48.274;7.796;2023-02-08T14:21:40;13.40;75.30
7360;DHT22;3720;48.274;7.796;2023-02-08T14:24:20;13.20;75.70
7360;DHT22;3720;48.274;7.796;2023-02-08T14:27:04;13.10;76.10
7360;DHT22;3720;48.274;7.796;2023-02-08T14:29:38;13.30;76.10
7360;DHT22;3720;48.274;7.796;2023-02-08T14:32:21;13.30;76.00
7360;DHT22;3720;48.274;7.796;2023-02-08T14:35:02;13.30;74.30
7360;DHT22;3720;48.274;7.796;2023-02-08T14:37:36;13.40;73.70
7360;DHT22;3720;48.274;7.796;2023-02-08T14:40:30;13.40;72.50
7360;DHT22;3720;48.274;7.796;2023-02-08T14:43:05;13.30;72.90
7360;DHT22;3720;48.274;7.796;2023-02-08T14:45:56;13.40;73.50
7360;DHT22;3720;48.274;7.796;2023-02-08T14:48:29;13.20;73.50
7360;DHT22;3720;48.274;7.796;2023-02-08T14:51:15;13.10;73.40
7360;DHT22;3720;48.274;7.796;2023-02-08T14:53:52;13.10;74.20
7360;DHT22;3720;48.274;7.796;2023-02-08T14:56:27;13.10;74.90
7360;DHT22;3720;48.274;7.796;2023-02-08T14:59:05;13.10;74.60
7360;DHT22;3720;48.274;7.796;2023-02-08T15:01:41;13.10;74.30
7360;DHT22;3720;48.274;7.796;2023-02-08T15:04:15;13.10;73.20
7360;DHT22;3720;48.274;7.796;2023-02-08T15:07:22;12.90;73.20
7360;DHT22;3720;48.274;7.796;2023-02-08T15:09:56;12.70;72.20
7360;DHT22;3720;48.274;7.796;2023-02-08T15:12:31;12.50;73.10
7360;DHT22;3720;48.274;7.796;2023-02-08T15:15:06;12.50;73.50
7360;DHT22;3720;48.274;7.796;2023-02-08T15:17:52;12.40;73.30
7360;DHT22;3720;48.274;7.796;2023-02-08T15:20:28;12.40;74.10
7360;DHT22;3720;48.274;7.796;2023-02-08T15:23:03;12.40;75.20
7360;DHT22;3720;48.274;7.796;2023-02-08T15:25:36;12.30;75.00
7360;DHT22;3720;48.274;7.796;2023-02-08T15:28:17;12.20;75.40
7360;DHT22;3720;48.274;7.796;2023-02-08T15:30:54;12.10;75.40
7360;DHT22;3720;48.274;7.796;2023-02-08T15:33:27;12.00;75.40
7360;DHT22;3720;48.274;7.796;2023-02-08T15:36:01;11.90;75.50
7360;DHT22;3720;48.274;7.796;2023-02-08T15:38:37;11.70;76.60
7360;DHT22;3720;48.274;7.796;2023-02-08T15:41:11;11.50;77.60
7360;DHT22;3720;48.274;7.796;2023-02-08T15:43:44;11.50;78.00
7360;DHT22;3720;48.274;7.796;2023-02-08T15:46:20;11.50;77.00
7360;DHT22;3720;48.274;7.796;2023-02-08T15:48:53;11.40;78.00
7360;DHT22;3720;48.274;7.796;2023-02-08T15:51:27;11.40;79.00
7360;DHT22;3720;48.274;7.796;2023-02-08T15:54:01;11.30;79.20
7360;DHT22;3720;48.274;7.796;2023-02-08T15:56:35;11.20;79.50
7360;DHT22;3720;48.274;7.796;2023-02-08T15:59:18;11.00;79.70
7360;DHT22;3720;48.274;7.796;2023-02-08T16:01:52;10.90;80.20
7360;DHT22;3720;48.274;7.796;2023-02-08T16:04:25;10.80;80.40
7360;DHT22;3720;48.274;7.796;2023-02-08T16:06:57;10.60;81.00
7360;DHT22;3720;48.274;7.796;2023-02-08T16:09:31;10.40;81.30
7360;DHT22;3720;48.274;7.796;2023-02-08T16:12:04;10.20;82.00
7360;DHT22;3720;48.274;7.796;2023-02-08T16:14:42;10.10;82.50
7360;DHT22;3720;48.274;7.796;2023-02-08T16:17:34;9.90;83.20
7360;DHT22;3720;48.274;7.796;2023-02-08T16:20:21;9.60;84.30
7360;DHT22;3720;48.274;7.796;2023-02-08T16:22:55;9.40;85.10
7360;DHT22;3720;48.274;7.796;2023-02-08T16:25:42;9.20;85.70
7360;DHT22;3720;48.274;7.796;2023-02-08T16:28:25;9.10;86.30
7360;DHT22;3720;48.274;7.796;2023-02-08T16:30:58;9.00;87.90
7360;DHT22;3720;48.274;7.796;2023-02-08T16:33:31;8.70;87.80
7360;DHT22;3720;48.274;7.796;2023-02-08T16:36:17;8.50;88.90
7360;DHT22;3720;48.274;7.796;2023-02-08T16:42:22;8.00;90.60
7360;DHT22;3720;48.274;7.796;2023-02-08T16:45:18;7.70;91.00
7360;DHT22;3720;48.274;7.796;2023-02-08T16:47:52;7.50;91.60
7360;DHT22;3720;48.274;7.796;2023-02-08T16:50:26;7.40;92.00
7360;DHT22;3720;48.274;7.796;2023-02-08T16:53:00;7.20;92.30
7360;DHT22;3720;48.274;7.796;2023-02-08T16:55:35;7.00;92.60
7360;DHT22;3720;48.274;7.796;2023-02-08T16:58:13;6.90;92.80
7360;DHT22;3720;48.274;7.796;2023-02-08T17:00:45;6.70;93.30
7360;DHT22;3720;48.274;7.796;2023-02-08T17:03:17;6.50;93.90
7360;DHT22;3720;48.274;7.796;2023-02-08T17:05:49;6.40;94.30
7360;DHT22;3720;48.274;7.796;2023-02-08T17:08:21;6.30;95.00
7360;DHT22;3720;48.274;7.796;2023-02-08T17:10:53;6.10;95.80
7360;DHT22;3720;48.274;7.796;2023-02-08T17:13:29;6.00;96.20
7360;DHT22;3720;48.274;7.796;2023-02-08T17:16:01;5.90;96.70
7360;DHT22;3720;48.274;7.796;2023-02-08T17:18:33;5.80;97.40
7360;DHT22;3720;48.274;7.796;2023-02-08T17:21:06;5.70;97.90
7360;DHT22;3720;48.274;7.796;2023-02-08T17:23:39;5.70;98.40